OIYY

Details ICAO OIYY (AZD)
Name YAZD SHAHID SADOOGHI
Region Iran
Timezone Asia/Tehran (UTC+4.5)
Plans Departing 18
Arriving 16
Stats Elevation 4,054 ft / 1,236 m (AMSL)
Location 31.904908° 54.276500°
Runways 1
Magnetic Variation 3.555° E
Sunrise 2018-05-28 01:20:41 UTC / 2018-05-28 05:50:41 Local
Sunset 2018-05-28 15:22:30 UTC / 2018-05-28 19:52:30 Local
Advertisement - Login to hide

Runways

ID Width Length Bearing (true) Bearing (mag) Surface Threshold Offset Overrun Length
13 148 ft / 45 m 13,453 ft / 4,100 m 133.16° 129.61° Asphalt 0 ft / 0 m 659 ft / 201 m
31 148 ft / 45 m 13,453 ft / 4,100 m 313.18° 309.63° Asphalt 0 ft / 0 m 659 ft / 201 m

Map

Weather


0- 5 10 15 20 25 30 35+ Temperature / ° C

Clouds and Precipitation
Forecast for 2018-05-28 00:00 UTC. Updated 4 hours ago

Ground ~20,000 ft ~40,000 ft Winds

METAR

OIYY 280300Z 29006KT 3000 DU NSC 24/08 Q1020

TAF

Not found

Frequencies

Recorded 126.25 MHz ATIS
Tower 121.90 MHz TWR
Tower 122.70 MHz TWR
Warning: Do not use this data for real-world aviation or navigation. No guarantee of current accuracy is given.